Portada
METAR-TAF:

METAR-TAF

Aeropuertos :

Aeropuerto de Gibraltar

Gibraltar, Gibraltar

latitud: 36-09N, longitud: 005-21W, altitud: 5 m

Observación

El informe se hizo hace 1 hora y 14 minutos, a las 01:50 UTC
Viento 13 kt del oeste-suroeste
Temperatura 23°C
Humedad 53%
Presión 1014 hPa
Visibilidad 10 km o más

METAR: LXGB 200150Z AUTO 25013KT 9999 // NCD 23/13 Q1014

Hora: 05:04 (03:04 UTC)

Pronóstico

El informe se hizo hace 10 horas y 30 minutos, a las 16:34 UTC
Pronóstico válido del 19 a las 18 UTC al 19 a las 22 UTC
Viento 12 kt del oeste
Visibilidad 10 km o más
sin nubes por debajo de 1500 m y sin presencia de cumulonimbus.
Temporalmente
del 19 a las 18 UTC al 19 a las 19 UTC
Viento 15 kt del sur-suroeste

TAF: LXGB 191634Z 1918/1922 26012KT CAVOK TEMPO 1918/1919 20015KT 520001

Observaciones y pronósticos meteorológicos de más de 4000 aeropuertos (mensajes METAR y TAF).

Los puntos amarillos y rojos representan las estaciones disponibles.

Ponga el ratón en el punto deseado para ver el nombre de la estación.

Haga clic para ver las observaciones y los pronósticos meteorológicos.

Para cambiar el mapa : haga clic en los botones verdes con una cruz de color negro para hacer un zoom, en el botón verde con un guión para alejar o en las flechas verdes para mapas adyacentes.


METAR-TAF: